Sabahat Telli — TCSQ6 — position and weather

sailwx.info

Track history (hours):
 
Tides and Currents Weather Stations Pressure Air Temp Water Temp Dewpoint Dewpoint Depression Visibility Wind Speed Wind Dir Waves Ship Positions

Sabahat Telli

Last reported at 2017-Apr-23 03:23 UTC. Time now 2017-Apr-25 08:41 UTC.
Position N 40°59' E 028°60'.

Length 99 m; draft 4.2 m.

Type: Tanker. MMSI: 271000961.

Date/timePositionNaut miles runAvg speedWind from/ knotsBaromVisibWave heightAir tempDewpointWater temp
2017-Apr-23 03:23N 40°59' E 028°60'3 8.4
2017-Apr-23 02:58N 40°56' E 028°60'4 8.6
2017-Apr-23 02:29N 40°52' E 029°02'5 9.7
2017-Apr-23 02:00N 40°47' E 029°01'0 0.0
2017-Apr-23 01:30N 40°47' E 029°01'0 0.0
2017-Apr-23 01:00N 40°47' E 029°01'0 0.0
2017-Apr-23 00:30N 40°47' E 029°01'0 0.0
2017-Apr-23 00:00N 40°47' E 029°01'0 0.0
2017-Apr-22 23:30N 40°47' E 029°01'0 0.0
2017-Apr-22 22:55N 40°47' E 029°01'1 2.0
2017-Apr-22 22:19N 40°47' E 029°03'410.5
2017-Apr-22 21:58N 40°47' E 029°07'613.0
2017-Apr-22 21:31N 40°46' E 029°15'610.3
2017-Apr-22 20:58N 40°45' E 029°22'713.2
2017-Apr-22 20:26N 40°45' E 029°32'  
2017-Apr-20 09:47N 40°44' E 029°24'3 8.6
2017-Apr-20 09:29N 40°43' E 029°21'612.1
2017-Apr-20 09:00N 40°46' E 029°14'612.5
2017-Apr-20 08:30N 40°48' E 029°06'713.4
2017-Apr-20 08:00N 40°51' E 028°58'8 3.1
2017-Apr-20 05:29N 40°57' E 028°52'4 1.5
2017-Apr-20 03:00N 40°58' E 028°57'  
Track history (hours):
 
Tides and Currents Weather Stations Pressure Air Temp Water Temp Dewpoint Dewpoint Depression Visibility Wind Speed Wind Dir Waves Ship Positions

Sabahat Telli

Last reported at 2017-Apr-23 03:23 UTC. Time now 2017-Apr-25 08:41 UTC.
Position N 40°59' E 028°60'.

Length 99 m; draft 4.2 m.

Type: Tanker. MMSI: 271000961.

Date/timePositionNaut miles runAvg speedWind from/ knotsBaromVisibWave heightAir tempDewpointWater temp
2017-Apr-23 03:23N 40°59' E 028°60'3 8.4
2017-Apr-23 02:58N 40°56' E 028°60'4 8.6
2017-Apr-23 02:29N 40°52' E 029°02'5 9.7
2017-Apr-23 02:00N 40°47' E 029°01'0 0.0
2017-Apr-23 01:30N 40°47' E 029°01'0 0.0
2017-Apr-23 01:00N 40°47' E 029°01'0 0.0
2017-Apr-23 00:30N 40°47' E 029°01'0 0.0
2017-Apr-23 00:00N 40°47' E 029°01'0 0.0
2017-Apr-22 23:30N 40°47' E 029°01'0 0.0
2017-Apr-22 22:55N 40°47' E 029°01'1 2.0
2017-Apr-22 22:19N 40°47' E 029°03'410.5
2017-Apr-22 21:58N 40°47' E 029°07'613.0
2017-Apr-22 21:31N 40°46' E 029°15'610.3
2017-Apr-22 20:58N 40°45' E 029°22'713.2
2017-Apr-22 20:26N 40°45' E 029°32'  
2017-Apr-20 09:47N 40°44' E 029°24'3 8.6
2017-Apr-20 09:29N 40°43' E 029°21'612.1
2017-Apr-20 09:00N 40°46' E 029°14'612.5
2017-Apr-20 08:30N 40°48' E 029°06'713.4
2017-Apr-20 08:00N 40°51' E 028°58'8 3.1
2017-Apr-20 05:29N 40°57' E 028°52'4 1.5
2017-Apr-20 03:00N 40°58' E 028°57'  

Dump ship's entire track history